sensor_id;sensor_type;location;lat;lon;timestamp;pressure;altitude;pressure_sealevel;temperature;humidity
35892;BME280;21993;42.672;23.296;2022-10-17T00:00:50;96001.41;;;11.71;61.75
35892;BME280;21993;42.672;23.296;2022-10-17T00:03:16;96006.88;;;11.68;61.37
35892;BME280;21993;42.672;23.296;2022-10-17T00:05:44;96014.75;;;11.68;61.68
35892;BME280;21993;42.672;23.296;2022-10-17T00:08:11;96007.41;;;11.73;61.60
35892;BME280;21993;42.672;23.296;2022-10-17T00:10:37;96008.78;;;11.66;61.12
35892;BME280;21993;42.672;23.296;2022-10-17T00:13:03;96013.94;;;11.68;61.36
35892;BME280;21993;42.672;23.296;2022-10-17T00:15:28;96008.66;;;11.68;61.35
35892;BME280;21993;42.672;23.296;2022-10-17T00:17:54;96005.38;;;11.53;61.70
35892;BME280;21993;42.672;23.296;2022-10-17T00:20:19;96008.75;;;11.42;61.59
35892;BME280;21993;42.672;23.296;2022-10-17T00:22:45;96009.50;;;11.44;61.93
35892;BME280;21993;42.672;23.296;2022-10-17T00:25:11;96009.56;;;11.43;61.75
35892;BME280;21993;42.672;23.296;2022-10-17T00:27:38;96018.03;;;11.35;61.54
35892;BME280;21993;42.672;23.296;2022-10-17T00:30:05;96018.66;;;11.26;61.62
35892;BME280;21993;42.672;23.296;2022-10-17T00:32:31;96011.41;;;11.30;61.90
35892;BME280;21993;42.672;23.296;2022-10-17T00:34:57;96013.50;;;11.24;61.78
35892;BME280;21993;42.672;23.296;2022-10-17T00:37:23;96006.56;;;11.23;61.89
35892;BME280;21993;42.672;23.296;2022-10-17T00:39:48;96020.13;;;11.17;62.21
35892;BME280;21993;42.672;23.296;2022-10-17T00:42:14;96021.41;;;11.24;62.42
35892;BME280;21993;42.672;23.296;2022-10-17T00:47:10;96025.09;;;11.22;62.85
35892;BME280;21993;42.672;23.296;2022-10-17T00:49:38;96022.38;;;11.11;62.61
35892;BME280;21993;42.672;23.296;2022-10-17T00:52:08;96024.47;;;11.06;62.65
35892;BME280;21993;42.672;23.296;2022-10-17T00:54:38;96029.59;;;11.07;63.01
35892;BME280;21993;42.672;23.296;2022-10-17T00:57:05;96025.41;;;11.05;63.21
35892;BME280;21993;42.672;23.296;2022-10-17T00:59:33;96026.16;;;11.07;63.35
35892;BME280;21993;42.672;23.296;2022-10-17T01:02:04;96021.00;;;11.05;63.00
35892;BME280;21993;42.672;23.296;2022-10-17T01:04:30;96019.84;;;10.96;63.26
35892;BME280;21993;42.672;23.296;2022-10-17T01:06:55;96028.47;;;10.98;62.70
35892;BME280;21993;42.672;23.296;2022-10-17T01:09:21;96029.41;;;10.97;63.23
35892;BME280;21993;42.672;23.296;2022-10-17T01:25:28;96018.59;;;10.77;63.69
35892;BME280;21993;42.672;23.296;2022-10-17T01:33:47;96014.19;;;10.77;63.22
35892;BME280;21993;42.672;23.296;2022-10-17T01:36:38;96021.53;;;10.72;63.25
35892;BME280;21993;42.672;23.296;2022-10-17T01:42:09;96030.75;;;10.65;63.79
35892;BME280;21993;42.672;23.296;2022-10-17T01:44:58;96032.09;;;10.58;64.05
35892;BME280;21993;42.672;23.296;2022-10-17T01:47:29;96030.66;;;10.54;64.31
35892;BME280;21993;42.672;23.296;2022-10-17T01:50:03;96030.31;;;10.46;64.35
35892;BME280;21993;42.672;23.296;2022-10-17T01:52:38;96031.38;;;10.43;64.61
35892;BME280;21993;42.672;23.296;2022-10-17T01:55:10;96031.03;;;10.48;64.46
35892;BME280;21993;42.672;23.296;2022-10-17T01:57:41;96031.16;;;10.46;64.34
35892;BME280;21993;42.672;23.296;2022-10-17T02:00:11;96034.41;;;10.50;63.41
35892;BME280;21993;42.672;23.296;2022-10-17T02:02:40;96032.22;;;10.43;63.81
35892;BME280;21993;42.672;23.296;2022-10-17T02:05:06;96039.13;;;10.45;63.92
35892;BME280;21993;42.672;23.296;2022-10-17T02:07:32;96039.53;;;10.38;64.31
35892;BME280;21993;42.672;23.296;2022-10-17T02:09:58;96041.44;;;10.36;64.34
35892;BME280;21993;42.672;23.296;2022-10-17T02:12:46;96040.88;;;10.31;64.38
35892;BME280;21993;42.672;23.296;2022-10-17T02:25:49;96037.75;;;10.39;64.08
35892;BME280;21993;42.672;23.296;2022-10-17T02:28:29;96044.50;;;10.43;64.02
35892;BME280;21993;42.672;23.296;2022-10-17T02:31:12;96046.56;;;10.38;64.11
35892;BME280;21993;42.672;23.296;2022-10-17T02:33:57;96049.19;;;10.38;64.32
35892;BME280;21993;42.672;23.296;2022-10-17T02:36:28;96054.16;;;10.42;64.52
35892;BME280;21993;42.672;23.296;2022-10-17T02:38:55;96062.03;;;10.42;64.82
35892;BME280;21993;42.672;23.296;2022-10-17T02:41:22;96057.69;;;10.41;64.95
35892;BME280;21993;42.672;23.296;2022-10-17T02:43:49;96057.31;;;10.48;64.85
35892;BME280;21993;42.672;23.296;2022-10-17T02:46:18;96069.97;;;10.41;64.68
35892;BME280;21993;42.672;23.296;2022-10-17T02:49:00;96070.81;;;10.29;64.50
35892;BME280;21993;42.672;23.296;2022-10-17T02:54:26;96070.44;;;10.21;64.84
35892;BME280;21993;42.672;23.296;2022-10-17T02:57:24;96079.38;;;10.04;65.22
35892;BME280;21993;42.672;23.296;2022-10-17T02:59:52;96074.88;;;10.06;64.48
35892;BME280;21993;42.672;23.296;2022-10-17T03:02:18;96068.16;;;10.02;64.51
35892;BME280;21993;42.672;23.296;2022-10-17T03:04:45;96073.94;;;10.07;64.12
35892;BME280;21993;42.672;23.296;2022-10-17T03:07:10;96080.31;;;10.03;64.85
35892;BME280;21993;42.672;23.296;2022-10-17T03:09:36;96080.31;;;10.03;64.55
35892;BME280;21993;42.672;23.296;2022-10-17T03:12:01;96090.44;;;10.09;64.87
35892;BME280;21993;42.672;23.296;2022-10-17T03:14:27;96080.84;;;10.08;64.97
35892;BME280;21993;42.672;23.296;2022-10-17T03:16:52;96088.22;;;10.15;64.48
35892;BME280;21993;42.672;23.296;2022-10-17T03:19:17;96095.59;;;10.10;64.46
35892;BME280;21993;42.672;23.296;2022-10-17T03:21:43;96087.16;;;10.05;64.33
35892;BME280;21993;42.672;23.296;2022-10-17T03:24:08;96089.88;;;10.04;64.87
35892;BME280;21993;42.672;23.296;2022-10-17T03:26:34;96083.59;;;10.06;64.65
35892;BME280;21993;42.672;23.296;2022-10-17T03:28:59;96090.94;;;10.01;64.72
35892;BME280;21993;42.672;23.296;2022-10-17T03:31:25;96090.75;;;9.90;64.30
35892;BME280;21993;42.672;23.296;2022-10-17T03:33:50;96094.22;;;9.91;64.88
35892;BME280;21993;42.672;23.296;2022-10-17T03:36:17;96087.50;;;9.86;64.75
35892;BME280;21993;42.672;23.296;2022-10-17T03:38:43;96091.53;;;9.92;64.99
35892;BME280;21993;42.672;23.296;2022-10-17T03:41:09;96090.38;;;9.82;64.63
35892;BME280;21993;42.672;23.296;2022-10-17T03:43:35;96089.75;;;9.78;64.50
35892;BME280;21993;42.672;23.296;2022-10-17T03:46:01;96094.16;;;9.78;65.42
35892;BME280;21993;42.672;23.296;2022-10-17T03:48:28;96099.09;;;9.82;65.11
35892;BME280;21993;42.672;23.296;2022-10-17T03:51:01;96099.88;;;9.84;64.99
35892;BME280;21993;42.672;23.296;2022-10-17T03:53:27;96091.44;;;9.79;64.97
35892;BME280;21993;42.672;23.296;2022-10-17T03:55:53;96102.66;;;9.81;64.79
35892;BME280;21993;42.672;23.296;2022-10-17T03:58:18;96102.88;;;9.78;65.06
35892;BME280;21993;42.672;23.296;2022-10-17T04:00:43;96110.00;;;9.76;65.03
35892;BME280;21993;42.672;23.296;2022-10-17T04:03:09;96104.09;;;9.73;65.90
35892;BME280;21993;42.672;23.296;2022-10-17T04:05:34;96103.06;;;9.75;65.19
35892;BME280;21993;42.672;23.296;2022-10-17T04:08:00;96107.06;;;9.67;65.69
35892;BME280;21993;42.672;23.296;2022-10-17T04:10:25;96108.84;;;9.66;64.91
35892;BME280;21993;42.672;23.296;2022-10-17T04:12:50;96109.91;;;9.64;64.62
35892;BME280;21993;42.672;23.296;2022-10-17T04:15:16;96111.88;;;9.60;65.74
35892;BME280;21993;42.672;23.296;2022-10-17T04:17:41;96114.69;;;9.57;65.63
35892;BME280;21993;42.672;23.296;2022-10-17T04:20:07;96112.16;;;9.55;65.43
35892;BME280;21993;42.672;23.296;2022-10-17T04:22:33;96114.78;;;9.55;65.46
35892;BME280;21993;42.672;23.296;2022-10-17T04:24:58;96124.63;;;9.52;66.06
35892;BME280;21993;42.672;23.296;2022-10-17T04:27:23;96118.81;;;9.47;65.30
35892;BME280;21993;42.672;23.296;2022-10-17T04:29:49;96119.94;;;9.43;65.86
35892;BME280;21993;42.672;23.296;2022-10-17T04:32:14;96109.47;;;9.43;65.45
35892;BME280;21993;42.672;23.296;2022-10-17T04:34:40;96121.16;;;9.37;66.28
35892;BME280;21993;42.672;23.296;2022-10-17T04:37:05;96117.97;;;9.46;65.64
35892;BME280;21993;42.672;23.296;2022-10-17T04:39:30;96123.31;;;9.45;65.74
35892;BME280;21993;42.672;23.296;2022-10-17T04:41:56;96125.56;;;9.51;65.28
35892;BME280;21993;42.672;23.296;2022-10-17T04:44:22;96125.38;;;9.54;65.31
35892;BME280;21993;42.672;23.296;2022-10-17T04:46:47;96133.13;;;9.55;65.87
35892;BME280;21993;42.672;23.296;2022-10-17T04:49:12;96125.94;;;9.59;66.09
35892;BME280;21993;42.672;23.296;2022-10-17T04:51:38;96131.34;;;9.56;66.01
35892;BME280;21993;42.672;23.296;2022-10-17T04:54:03;96141.28;;;9.51;66.80
35892;BME280;21993;42.672;23.296;2022-10-17T04:56:29;96130.59;;;9.54;66.77
35892;BME280;21993;42.672;23.296;2022-10-17T04:58:57;96132.97;;;9.58;66.26
35892;BME280;21993;42.672;23.296;2022-10-17T05:01:24;96141.66;;;9.59;66.66
35892;BME280;21993;42.672;23.296;2022-10-17T05:03:50;96141.94;;;9.54;65.83
35892;BME280;21993;42.672;23.296;2022-10-17T05:06:21;96144.34;;;9.57;65.33
35892;BME280;21993;42.672;23.296;2022-10-17T05:08:46;96143.72;;;9.54;65.68
35892;BME280;21993;42.672;23.296;2022-10-17T05:11:26;96145.03;;;9.47;66.36
35892;BME280;21993;42.672;23.296;2022-10-17T05:13:59;96141.28;;;9.51;66.20
35892;BME280;21993;42.672;23.296;2022-10-17T05:16:25;96146.91;;;9.59;65.81
35892;BME280;21993;42.672;23.296;2022-10-17T05:18:53;96149.53;;;9.59;66.10
35892;BME280;21993;42.672;23.296;2022-10-17T05:21:20;96158.31;;;9.58;65.92
35892;BME280;21993;42.672;23.296;2022-10-17T05:23:45;96160.38;;;9.67;65.76
35892;BME280;21993;42.672;23.296;2022-10-17T05:26:11;96165.44;;;9.70;66.22
35892;BME280;21993;42.672;23.296;2022-10-17T05:28:37;96162.25;;;9.65;65.98
35892;BME280;21993;42.672;23.296;2022-10-17T05:31:04;96163.75;;;9.69;65.23
35892;BME280;21993;42.672;23.296;2022-10-17T05:33:30;96163.38;;;9.75;65.36
35892;BME280;21993;42.672;23.296;2022-10-17T05:35:55;96170.31;;;9.62;65.32
35892;BME280;21993;42.672;23.296;2022-10-17T05:38:21;96172.09;;;9.62;66.05
35892;BME280;21993;42.672;23.296;2022-10-17T05:40:46;96171.78;;;9.66;66.20
35892;BME280;21993;42.672;23.296;2022-10-17T05:43:11;96175.19;;;9.68;65.92
35892;BME280;21993;42.672;23.296;2022-10-17T05:45:38;96174.78;;;9.74;66.04
35892;BME280;21993;42.672;23.296;2022-10-17T05:48:04;96175.25;;;9.81;65.95
35892;BME280;21993;42.672;23.296;2022-10-17T05:50:30;96181.16;;;9.84;65.19
35892;BME280;21993;42.672;23.296;2022-10-17T05:52:56;96175.53;;;9.91;66.17
35892;BME280;21993;42.672;23.296;2022-10-17T05:55:22;96177.97;;;9.94;65.61
35892;BME280;21993;42.672;23.296;2022-10-17T05:57:48;96181.69;;;10.04;65.42
35892;BME280;21993;42.672;23.296;2022-10-17T06:00:15;96191.72;;;10.11;65.25
35892;BME280;21993;42.672;23.296;2022-10-17T06:02:41;96190.78;;;10.12;65.02
35892;BME280;21993;42.672;23.296;2022-10-17T06:05:07;96199.47;;;10.13;65.42
35892;BME280;21993;42.672;23.296;2022-10-17T06:07:32;96195.53;;;10.20;65.26
35892;BME280;21993;42.672;23.296;2022-10-17T06:09:57;96200.06;;;10.18;65.25
35892;BME280;21993;42.672;23.296;2022-10-17T06:12:23;96198.84;;;10.24;65.23
35892;BME280;21993;42.672;23.296;2022-10-17T06:14:49;96203.06;;;10.26;65.30
35892;BME280;21993;42.672;23.296;2022-10-17T06:17:14;96200.97;;;10.31;65.32
35892;BME280;21993;42.672;23.296;2022-10-17T06:19:39;96197.75;;;10.40;64.97
35892;BME280;21993;42.672;23.296;2022-10-17T06:22:06;96208.47;;;10.37;64.66
35892;BME280;21993;42.672;23.296;2022-10-17T06:24:31;96213.72;;;10.37;65.18
35892;BME280;21993;42.672;23.296;2022-10-17T06:26:57;96213.88;;;10.49;65.02
35892;BME280;21993;42.672;23.296;2022-10-17T06:29:23;96220.41;;;10.56;64.18
35892;BME280;21993;42.672;23.296;2022-10-17T06:31:48;96220.97;;;10.61;64.02
35892;BME280;21993;42.672;23.296;2022-10-17T06:34:14;96221.41;;;10.67;64.20
35892;BME280;21993;42.672;23.296;2022-10-17T06:36:39;96228.72;;;10.77;64.27
35892;BME280;21993;42.672;23.296;2022-10-17T06:39:04;96234.22;;;10.86;63.40
35892;BME280;21993;42.672;23.296;2022-10-17T06:41:30;96230.44;;;10.90;63.70
35892;BME280;21993;42.672;23.296;2022-10-17T06:43:55;96228.25;;;10.97;63.64
35892;BME280;21993;42.672;23.296;2022-10-17T06:46:21;96235.25;;;11.11;62.23
35892;BME280;21993;42.672;23.296;2022-10-17T06:48:46;96232.00;;;11.20;62.71
35892;BME280;21993;42.672;23.296;2022-10-17T06:51:12;96230.09;;;11.35;62.47
35892;BME280;21993;42.672;23.296;2022-10-17T06:53:39;96231.09;;;11.46;61.36
35892;BME280;21993;42.672;23.296;2022-10-17T06:56:06;96233.38;;;11.51;61.46
35892;BME280;21993;42.672;23.296;2022-10-17T06:58:34;96230.47;;;11.55;61.17
35892;BME280;21993;42.672;23.296;2022-10-17T07:01:06;96229.63;;;11.55;61.33
35892;BME280;21993;42.672;23.296;2022-10-17T07:03:31;96233.63;;;11.61;61.30
35892;BME280;21993;42.672;23.296;2022-10-17T07:05:57;96233.97;;;11.69;60.92
35892;BME280;21993;42.672;23.296;2022-10-17T07:08:24;96237.31;;;11.71;61.26
35892;BME280;21993;42.672;23.296;2022-10-17T07:10:50;96229.75;;;11.92;60.68
35892;BME280;21993;42.672;23.296;2022-10-17T07:13:16;96230.25;;;12.22;59.05
35892;BME280;21993;42.672;23.296;2022-10-17T07:15:42;96222.38;;;12.09;59.39
35892;BME280;21993;42.672;23.296;2022-10-17T07:18:07;96219.84;;;12.08;60.69
35892;BME280;21993;42.672;23.296;2022-10-17T07:20:33;96220.22;;;12.27;59.06
35892;BME280;21993;42.672;23.296;2022-10-17T07:22:59;96227.44;;;12.13;59.84
35892;BME280;21993;42.672;23.296;2022-10-17T07:25:24;96229.06;;;12.26;59.59
35892;BME280;21993;42.672;23.296;2022-10-17T07:27:50;96230.69;;;12.29;59.85
35892;BME280;21993;42.672;23.296;2022-10-17T07:30:16;96234.22;;;12.40;59.29
35892;BME280;21993;42.672;23.296;2022-10-17T07:32:42;96216.59;;;12.54;59.04
35892;BME280;21993;42.672;23.296;2022-10-17T07:35:08;96231.44;;;12.55;59.32
35892;BME280;21993;42.672;23.296;2022-10-17T07:37:34;96240.06;;;12.57;59.51
35892;BME280;21993;42.672;23.296;2022-10-17T07:40:00;96231.78;;;12.74;59.17
35892;BME280;21993;42.672;23.296;2022-10-17T07:42:25;96233.19;;;12.91;58.01
35892;BME280;21993;42.672;23.296;2022-10-17T07:44:52;96237.31;;;12.95;58.04
35892;BME280;21993;42.672;23.296;2022-10-17T07:47:18;96245.16;;;13.08;57.65
35892;BME280;21993;42.672;23.296;2022-10-17T07:49:43;96235.41;;;13.21;57.47
35892;BME280;21993;42.672;23.296;2022-10-17T07:52:13;96237.09;;;13.22;58.03
35892;BME280;21993;42.672;23.296;2022-10-17T07:54:39;96235.41;;;13.21;57.48
35892;BME280;21993;42.672;23.296;2022-10-17T07:57:05;96238.81;;;13.34;57.91
35892;BME280;21993;42.672;23.296;2022-10-17T07:59:34;96232.06;;;13.65;57.01
35892;BME280;21993;42.672;23.296;2022-10-17T08:02:01;96229.22;;;13.79;55.65
35892;BME280;21993;42.672;23.296;2022-10-17T08:04:27;96238.06;;;13.78;56.25
35892;BME280;21993;42.672;23.296;2022-10-17T08:06:52;96231.75;;;13.81;55.94
35892;BME280;21993;42.672;23.296;2022-10-17T08:09:18;96221.69;;;13.97;55.79
35892;BME280;21993;42.672;23.296;2022-10-17T08:11:44;96230.06;;;13.91;56.19
35892;BME280;21993;42.672;23.296;2022-10-17T08:14:11;96225.53;;;14.04;55.75
35892;BME280;21993;42.672;23.296;2022-10-17T08:16:36;96223.22;;;14.11;55.47
35892;BME280;21993;42.672;23.296;2022-10-17T08:19:02;96232.22;;;14.20;55.88
35892;BME280;21993;42.672;23.296;2022-10-17T08:21:28;96216.63;;;14.28;55.39
35892;BME280;21993;42.672;23.296;2022-10-17T08:23:53;96208.72;;;14.50;54.88
35892;BME280;21993;42.672;23.296;2022-10-17T08:26:19;96207.25;;;14.57;54.02
35892;BME280;21993;42.672;23.296;2022-10-17T08:28:45;96201.00;;;15.02;52.08
35892;BME280;21993;42.672;23.296;2022-10-17T08:31:13;96205.09;;;14.95;53.12
35892;BME280;21993;42.672;23.296;2022-10-17T08:33:41;96213.47;;;15.11;53.35
35892;BME280;21993;42.672;23.296;2022-10-17T08:36:08;96202.97;;;15.20;52.45
35892;BME280;21993;42.672;23.296;2022-10-17T08:38:34;96208.66;;;15.16;53.15
35892;BME280;21993;42.672;23.296;2022-10-17T08:41:04;96205.44;;;15.33;52.39
35892;BME280;21993;42.672;23.296;2022-10-17T08:46:29;96202.81;;;15.75;50.62
35892;BME280;21993;42.672;23.296;2022-10-17T08:48:57;96212.31;;;15.77;50.68
35892;BME280;21993;42.672;23.296;2022-10-17T08:51:32;96206.22;;;15.87;50.43
35892;BME280;21993;42.672;23.296;2022-10-17T08:54:39;96213.31;;;16.07;48.70
35892;BME280;21993;42.672;23.296;2022-10-17T08:57:03;96214.59;;;16.13;48.45
35892;BME280;21993;42.672;23.296;2022-10-17T08:59:29;96215.34;;;16.24;48.26
35892;BME280;21993;42.672;23.296;2022-10-17T09:02:02;96209.63;;;16.29;48.49
35892;BME280;21993;42.672;23.296;2022-10-17T09:07:52;96212.94;;;16.61;48.59
35892;BME280;21993;42.672;23.296;2022-10-17T09:13:43;96198.81;;;17.01;46.36
35892;BME280;21993;42.672;23.296;2022-10-17T09:19:02;96206.53;;;17.24;45.76
35892;BME280;21993;42.672;23.296;2022-10-17T09:24:58;96206.66;;;17.51;44.88
35892;BME280;21993;42.672;23.296;2022-10-17T09:27:45;96197.69;;;17.62;43.82
35892;BME280;21993;42.672;23.296;2022-10-17T09:30:53;96202.84;;;17.73;42.54
35892;BME280;21993;42.672;23.296;2022-10-17T09:33:19;96198.25;;;17.75;43.90
35892;BME280;21993;42.672;23.296;2022-10-17T09:35:45;96195.59;;;17.75;43.08
35892;BME280;21993;42.672;23.296;2022-10-17T09:38:17;96200.19;;;17.92;42.75
35892;BME280;21993;42.672;23.296;2022-10-17T09:40:43;96188.13;;;17.98;43.39
35892;BME280;21993;42.672;23.296;2022-10-17T09:43:12;96195.59;;;18.22;40.89
35892;BME280;21993;42.672;23.296;2022-10-17T09:46:04;96190.31;;;18.40;39.74
35892;BME280;21993;42.672;23.296;2022-10-17T09:48:35;96184.69;;;18.15;39.48
35892;BME280;21993;42.672;23.296;2022-10-17T09:51:04;96196.03;;;18.17;39.44
35892;BME280;21993;42.672;23.296;2022-10-17T09:53:35;96191.16;;;18.13;40.37
35892;BME280;21993;42.672;23.296;2022-10-17T09:56:07;96188.34;;;18.14;40.16
35892;BME280;21993;42.672;23.296;2022-10-17T09:58:49;96186.41;;;18.16;39.89
35892;BME280;21993;42.672;23.296;2022-10-17T10:01:16;96169.94;;;18.31;38.35
35892;BME280;21993;42.672;23.296;2022-10-17T10:03:42;96174.78;;;18.45;37.61
35892;BME280;21993;42.672;23.296;2022-10-17T10:11:14;96170.81;;;18.49;38.48
35892;BME280;21993;42.672;23.296;2022-10-17T10:13:41;96162.34;;;18.63;37.48
35892;BME280;21993;42.672;23.296;2022-10-17T10:16:16;96165.44;;;18.68;37.22
35892;BME280;21993;42.672;23.296;2022-10-17T10:18:42;96168.38;;;18.65;36.90
35892;BME280;21993;42.672;23.296;2022-10-17T10:21:16;96162.03;;;18.76;35.40
35892;BME280;21993;42.672;23.296;2022-10-17T10:24:01;96158.63;;;18.83;35.67
35892;BME280;21993;42.672;23.296;2022-10-17T10:26:46;96158.84;;;19.08;35.37
35892;BME280;21993;42.672;23.296;2022-10-17T10:29:42;96156.72;;;19.11;36.27
35892;BME280;21993;42.672;23.296;2022-10-17T10:32:25;96156.41;;;19.15;33.38
35892;BME280;21993;42.672;23.296;2022-10-17T10:37:46;96152.53;;;19.27;33.54
35892;BME280;21993;42.672;23.296;2022-10-17T10:42:51;96141.81;;;19.36;33.48
35892;BME280;21993;42.672;23.296;2022-10-17T10:47:56;96128.59;;;19.53;32.96
35892;BME280;21993;42.672;23.296;2022-10-17T10:50:30;96132.19;;;19.61;33.78
35892;BME280;21993;42.672;23.296;2022-10-17T10:55:33;96126.91;;;19.70;32.59
35892;BME280;21993;42.672;23.296;2022-10-17T10:58:05;96122.81;;;19.57;33.44
35892;BME280;21993;42.672;23.296;2022-10-17T11:00:36;96124.19;;;19.87;33.42
35892;BME280;21993;42.672;23.296;2022-10-17T11:03:22;96120.53;;;19.88;33.13
35892;BME280;21993;42.672;23.296;2022-10-17T11:05:56;96113.38;;;19.89;33.44
35892;BME280;21993;42.672;23.296;2022-10-17T11:08:42;96107.50;;;20.11;32.39
35892;BME280;21993;42.672;23.296;2022-10-17T11:11:40;96107.63;;;20.02;32.22
35892;BME280;21993;42.672;23.296;2022-10-17T11:17:16;96113.78;;;20.02;31.15
35892;BME280;21993;42.672;23.296;2022-10-17T11:22:43;96112.25;;;20.00;30.81
35892;BME280;21993;42.672;23.296;2022-10-17T11:25:39;96099.81;;;20.16;31.74
35892;BME280;21993;42.672;23.296;2022-10-17T11:28:19;96097.84;;;20.18;31.73
35892;BME280;21993;42.672;23.296;2022-10-17T11:30:59;96088.91;;;20.36;31.08
35892;BME280;21993;42.672;23.296;2022-10-17T11:36:16;96097.75;;;20.36;29.42
35892;BME280;21993;42.672;23.296;2022-10-17T11:38:44;96091.72;;;20.34;29.95
35892;BME280;21993;42.672;23.296;2022-10-17T11:41:19;96095.25;;;20.43;29.79
35892;BME280;21993;42.672;23.296;2022-10-17T11:44:03;96087.97;;;20.45;30.99
35892;BME280;21993;42.672;23.296;2022-10-17T11:46:30;96091.50;;;20.54;30.46
35892;BME280;21993;42.672;23.296;2022-10-17T11:49:17;96098.34;;;20.56;30.67
35892;BME280;21993;42.672;23.296;2022-10-17T11:51:50;96094.03;;;20.71;29.43
35892;BME280;21993;42.672;23.296;2022-10-17T11:54:25;96088.19;;;20.68;29.74
35892;BME280;21993;42.672;23.296;2022-10-17T12:05:06;96080.03;;;21.10;30.51
35892;BME280;21993;42.672;23.296;2022-10-17T12:07:44;96069.88;;;21.05;30.57
35892;BME280;21993;42.672;23.296;2022-10-17T12:12:56;96069.06;;;21.29;29.94
35892;BME280;21993;42.672;23.296;2022-10-17T12:22:49;96069.25;;;21.28;29.98
35892;BME280;21993;42.672;23.296;2022-10-17T12:25:19;96069.06;;;21.38;30.14
35892;BME280;21993;42.672;23.296;2022-10-17T12:27:47;96069.06;;;21.46;29.51
35892;BME280;21993;42.672;23.296;2022-10-17T12:30:24;96072.22;;;21.49;29.64
35892;BME280;21993;42.672;23.296;2022-10-17T12:35:27;96063.50;;;21.63;29.21
35892;BME280;21993;42.672;23.296;2022-10-17T12:40:52;96055.50;;;21.55;28.52
35892;BME280;21993;42.672;23.296;2022-10-17T12:46:01;96057.00;;;21.58;28.64
35892;BME280;21993;42.672;23.296;2022-10-17T12:51:06;96056.84;;;21.43;29.94
35892;BME280;21993;42.672;23.296;2022-10-17T12:56:35;96057.16;;;21.56;29.46
35892;BME280;21993;42.672;23.296;2022-10-17T12:59:08;96055.66;;;21.62;29.69
35892;BME280;21993;42.672;23.296;2022-10-17T13:01:37;96057.97;;;21.65;29.60
35892;BME280;21993;42.672;23.296;2022-10-17T13:04:03;96050.63;;;21.67;29.45
35892;BME280;21993;42.672;23.296;2022-10-17T13:06:32;96053.94;;;21.77;29.37
35892;BME280;21993;42.672;23.296;2022-10-17T13:09:07;96054.78;;;21.78;29.81
35892;BME280;21993;42.672;23.296;2022-10-17T13:11:36;96052.94;;;21.78;29.57
35892;BME280;21993;42.672;23.296;2022-10-17T13:14:10;96048.97;;;21.58;29.55
35892;BME280;21993;42.672;23.296;2022-10-17T13:16:39;96048.78;;;21.68;29.69
35892;BME280;21993;42.672;23.296;2022-10-17T13:19:19;96047.47;;;21.63;29.38
35892;BME280;21993;42.672;23.296;2022-10-17T13:21:58;96053.47;;;21.66;29.35
35892;BME280;21993;42.672;23.296;2022-10-17T13:24:39;96055.31;;;21.65;29.71
35892;BME280;21993;42.672;23.296;2022-10-17T13:27:19;96050.81;;;21.49;29.54
35892;BME280;21993;42.672;23.296;2022-10-17T13:29:45;96050.16;;;21.55;29.18
35892;BME280;21993;42.672;23.296;2022-10-17T13:32:11;96050.31;;;21.62;28.81
35892;BME280;21993;42.672;23.296;2022-10-17T13:34:36;96051.66;;;21.58;29.24
35892;BME280;21993;42.672;23.296;2022-10-17T13:37:04;96045.47;;;21.57;29.68
35892;BME280;21993;42.672;23.296;2022-10-17T13:39:36;96045.31;;;21.51;29.42
35892;BME280;21993;42.672;23.296;2022-10-17T13:42:03;96051.34;;;21.53;28.78
35892;BME280;21993;42.672;23.296;2022-10-17T13:44:34;96036.31;;;21.44;28.95
35892;BME280;21993;42.672;23.296;2022-10-17T13:47:00;96047.69;;;21.29;28.29
35892;BME280;21993;42.672;23.296;2022-10-17T13:49:35;96039.84;;;21.03;28.31
35892;BME280;21993;42.672;23.296;2022-10-17T13:52:04;96049.69;;;21.19;28.68
35892;BME280;21993;42.672;23.296;2022-10-17T13:54:33;96051.66;;;21.17;28.94
35892;BME280;21993;42.672;23.296;2022-10-17T13:57:00;96059.03;;;21.07;29.13
35892;BME280;21993;42.672;23.296;2022-10-17T13:59:37;96049.00;;;21.01;29.76
35892;BME280;21993;42.672;23.296;2022-10-17T14:02:05;96052.38;;;21.03;30.37
35892;BME280;21993;42.672;23.296;2022-10-17T14:04:37;96051.84;;;20.99;30.53
35892;BME280;21993;42.672;23.296;2022-10-17T14:07:03;96052.19;;;21.04;31.03
35892;BME280;21993;42.672;23.296;2022-10-17T14:09:31;96052.84;;;20.98;31.06
35892;BME280;21993;42.672;23.296;2022-10-17T14:14:25;96059.53;;;21.02;31.80
35892;BME280;21993;42.672;23.296;2022-10-17T14:16:51;96058.84;;;20.92;31.74
35892;BME280;21993;42.672;23.296;2022-10-17T14:19:24;96063.19;;;20.77;31.93
35892;BME280;21993;42.672;23.296;2022-10-17T14:22:22;96067.00;;;20.66;31.98
35892;BME280;21993;42.672;23.296;2022-10-17T14:24:49;96066.50;;;20.71;32.89
35892;BME280;21993;42.672;23.296;2022-10-17T14:27:34;96059.50;;;20.70;32.89
35892;BME280;21993;42.672;23.296;2022-10-17T14:32:57;96063.41;;;20.41;34.29
35892;BME280;21993;42.672;23.296;2022-10-17T14:35:23;96058.88;;;20.34;33.73
35892;BME280;21993;42.672;23.296;2022-10-17T14:37:51;96058.81;;;20.43;33.95
35892;BME280;21993;42.672;23.296;2022-10-17T14:40:20;96064.91;;;20.36;34.63
35892;BME280;21993;42.672;23.296;2022-10-17T14:42:48;96064.34;;;20.24;35.00
35892;BME280;21993;42.672;23.296;2022-10-17T14:47:48;96067.81;;;20.08;34.68
35892;BME280;21993;42.672;23.296;2022-10-17T14:52:40;96076.34;;;20.12;35.40
35892;BME280;21993;42.672;23.296;2022-10-17T14:55:34;96077.47;;;20.09;35.55
35892;BME280;21993;42.672;23.296;2022-10-17T14:58:00;96085.56;;;19.91;36.09
35892;BME280;21993;42.672;23.296;2022-10-17T15:00:26;96085.91;;;19.96;36.18
35892;BME280;21993;42.672;23.296;2022-10-17T15:02:54;96086.75;;;19.97;35.73
35892;BME280;21993;42.672;23.296;2022-10-17T15:05:20;96081.59;;;19.95;35.96